createdAt,value
2019-03-04T00:01:09.898Z,99180.73
2019-03-04T00:03:39.767Z,99183.41
2019-03-04T00:06:09.301Z,99175.36
2019-03-04T00:08:39.088Z,99182.91
2019-03-04T00:11:08.619Z,99160.59
2019-03-04T00:13:38.795Z,99153.50
2019-03-04T00:16:08.317Z,99154.84
2019-03-04T00:18:37.887Z,99149.97
2019-03-04T00:21:07.414Z,99155.84
2019-03-04T00:23:36.946Z,99144.60
2019-03-04T00:26:06.816Z,99117.91
2019-03-04T00:28:36.333Z,99140.23
2019-03-04T00:31:05.865Z,99129.48
2019-03-04T00:33:35.397Z,99128.64
2019-03-04T03:37:12.414Z,98634.78
2019-03-04T03:39:42.406Z,98636.59
2019-03-04T03:42:12.940Z,98629.64
2019-03-04T03:44:42.783Z,98636.78
2019-03-04T03:52:51.449Z,98588.16
2019-03-04T03:55:21.571Z,98603.97
2019-03-04T03:57:51.557Z,98596.14
2019-03-04T04:00:21.115Z,98583.45
2019-03-04T04:05:40.725Z,98581.70
2019-03-04T04:08:10.276Z,98573.36
2019-03-04T04:10:40.101Z,98566.52
2019-03-04T04:13:09.639Z,98541.05
2019-03-04T04:15:39.530Z,98574.91
2019-03-04T04:18:09.130Z,98570.39
2019-03-04T04:20:38.929Z,98579.66
2019-03-04T04:23:08.762Z,98570.77
2019-03-04T04:25:38.297Z,98573.95
2019-03-04T04:28:09.631Z,98637.83
2019-03-04T04:30:40.175Z,98685.62
2019-03-04T04:33:09.713Z,98673.05
2019-03-04T04:35:39.251Z,98700.38
2019-03-04T04:38:09.578Z,98673.92
2019-03-04T04:40:39.100Z,98663.32
2019-03-04T04:43:08.723Z,98666.00
2019-03-04T04:45:38.622Z,98681.27
2019-03-04T04:48:08.138Z,98663.82
2019-03-04T04:50:37.683Z,98651.59
2019-03-04T04:53:07.218Z,98638.80
2019-03-04T04:55:37.085Z,98638.33
2019-03-04T04:58:06.947Z,98615.88
2019-03-04T05:00:36.487Z,98588.20
2019-03-04T05:03:06.369Z,98574.28
2019-03-04T05:05:36.664Z,98589.05
2019-03-04T05:08:06.250Z,98574.16
2019-03-04T05:10:35.791Z,98571.11
2019-03-04T05:13:05.655Z,98565.27
2019-03-04T05:15:35.251Z,98565.27
2019-03-04T05:18:04.790Z,98555.88
2019-03-04T05:20:34.326Z,98541.59
2019-03-04T05:23:03.858Z,98537.23
2019-03-04T05:25:33.402Z,98529.52
2019-03-04T05:28:02.946Z,98536.94
2019-03-04T05:30:32.582Z,98543.31
2019-03-04T05:33:03.310Z,98565.27
2019-03-04T05:35:32.828Z,98576.34
2019-03-04T05:38:02.660Z,98543.31
2019-03-04T05:40:32.211Z,98537.94
2019-03-04T05:43:02.050Z,98528.05
2019-03-04T05:45:31.601Z,98531.44
2019-03-04T05:48:01.450Z,98528.89
2019-03-04T05:50:31.110Z,98510.27
2019-03-04T05:53:00.704Z,98514.30
2019-03-04T05:55:30.234Z,98524.36
2019-03-04T05:57:59.768Z,98498.83
2019-03-04T06:00:31.470Z,98509.61
2019-03-04T06:03:01.040Z,98523.95
2019-03-04T06:05:30.568Z,98526.00
2019-03-04T06:08:02.701Z,98497.66
2019-03-04T06:10:32.558Z,98500.58
2019-03-04T06:13:03.358Z,98492.36
2019-03-04T06:15:33.556Z,98479.99
2019-03-04T06:18:03.076Z,98486.57
2019-03-04T06:20:32.988Z,98495.33
2019-03-04T06:23:02.511Z,98473.86
2019-03-04T06:25:32.058Z,98485.77
2019-03-04T06:28:01.982Z,98497.72
2019-03-04T06:30:31.877Z,98502.59
2019-03-04T06:33:01.402Z,98498.06
2019-03-04T06:35:31.017Z,98506.48
2019-03-04T06:38:00.539Z,98514.03
2019-03-04T06:40:30.423Z,98504.14
2019-03-04T06:42:59.960Z,98521.95
2019-03-04T06:45:29.565Z,98516.09
2019-03-04T06:47:59.030Z,98534.38
2019-03-04T06:51:05.828Z,98539.24
2019-03-04T06:53:49.391Z,98532.53
2019-03-04T06:56:43.156Z,98531.19
2019-03-04T06:59:53.966Z,98524.34
2019-03-04T07:02:23.649Z,98537.40
2019-03-04T07:05:42.370Z,98544.11
2019-03-04T07:08:44.234Z,98518.13
2019-03-04T07:11:14.580Z,98543.14
2019-03-04T07:13:45.488Z,98551.69
2019-03-04T07:16:15.386Z,98547.66
2019-03-04T07:18:44.941Z,98565.86
2019-03-04T07:21:14.954Z,98575.59
2019-03-04T07:23:44.480Z,98584.48
2019-03-04T07:26:14.420Z,98580.83
2019-03-04T07:28:43.971Z,98594.73
2019-03-04T07:31:13.518Z,98624.26
2019-03-04T07:33:43.054Z,98634.88
2019-03-04T07:36:12.579Z,98635.38
2019-03-04T07:39:09.437Z,98652.83
2019-03-04T07:41:41.019Z,98664.91
2019-03-04T07:44:10.781Z,98674.30
2019-03-04T07:46:40.312Z,98689.78
2019-03-04T07:49:11.133Z,98688.44
2019-03-04T07:51:42.384Z,98698.68
2019-03-04T07:54:11.935Z,98705.39
2019-03-04T07:56:42.000Z,98718.81
2019-03-04T07:59:11.528Z,98733.59
2019-03-04T08:01:41.076Z,98728.72
2019-03-04T08:04:10.603Z,98733.59
2019-03-04T08:06:40.952Z,98753.09
2019-03-04T08:09:55.974Z,98757.97
2019-03-04T08:12:58.441Z,98764.68
2019-03-04T08:15:39.312Z,98774.58
2019-03-04T08:18:09.216Z,98777.61
2019-03-04T08:20:38.764Z,98787.84
2019-03-04T08:23:10.059Z,98786.38
2019-03-04T08:25:39.531Z,98792.72
2019-03-04T08:28:10.738Z,98804.17
2019-03-04T08:30:40.914Z,98809.20
2019-03-04T08:33:11.762Z,98812.23
2019-03-04T08:35:41.375Z,98822.97
2019-03-04T08:38:10.925Z,98828.72
2019-03-04T08:40:40.479Z,98828.72
2019-03-04T08:43:10.104Z,98836.27
2019-03-04T08:45:40.003Z,98838.80
2019-03-04T08:48:09.530Z,98843.20
2019-03-04T08:50:39.082Z,98853.95
2019-03-04T08:53:08.640Z,98853.11
2019-03-04T08:55:38.167Z,98853.11
2019-03-04T08:58:08.005Z,98860.29
2019-03-04T09:00:37.525Z,98873.25
2019-03-04T09:03:07.043Z,98872.37
2019-03-04T09:05:36.574Z,98885.17
2019-03-04T09:08:06.096Z,98886.02
2019-03-04T09:10:36.449Z,98887.73
2019-03-04T09:13:06.021Z,98893.95
2019-03-04T09:15:35.627Z,98901.51
2019-03-04T09:18:05.179Z,98911.41
2019-03-04T09:20:34.731Z,98921.19
2019-03-04T09:23:04.257Z,98910.78
2019-03-04T09:25:45.517Z,98915.66
2019-03-04T09:28:15.052Z,98913.47
2019-03-04T09:30:44.620Z,98917.00
2019-03-04T09:33:14.151Z,98914.19
2019-03-04T09:35:43.746Z,98928.34
2019-03-04T09:38:13.642Z,98919.78
2019-03-04T09:40:43.268Z,98926.00
2019-03-04T09:43:12.836Z,98933.22
2019-03-04T09:45:42.419Z,98935.41
2019-03-04T09:48:12.163Z,98940.27
2019-03-04T09:50:41.797Z,98954.20
2019-03-04T09:53:12.293Z,98956.05
2019-03-04T09:55:41.915Z,98957.89
2019-03-04T09:58:11.470Z,98967.76
2019-03-04T10:00:57.979Z,98975.69
2019-03-04T10:04:15.246Z,98973.01
2019-03-04T10:07:18.389Z,98975.69
2019-03-04T10:10:06.634Z,98981.41
2019-03-04T10:13:09.360Z,98984.59
2019-03-04T10:16:00.874Z,98998.52
2019-03-04T10:19:26.957Z,98992.81
2019-03-04T10:22:25.139Z,98987.44
2019-03-04T10:25:09.301Z,99002.67
2019-03-04T10:28:00.411Z,99002.55
2019-03-04T10:30:37.586Z,99007.43
2019-03-04T10:33:41.285Z,99014.98
2019-03-04T10:36:55.946Z,99020.02
2019-03-04T10:39:50.941Z,99030.76
2019-03-04T10:42:50.894Z,99046.03
2019-03-04T10:45:29.372Z,99040.51
2019-03-04T10:47:58.981Z,99057.00
2019-03-04T10:50:28.544Z,99065.56
2019-03-04T10:52:58.096Z,99064.06
2019-03-04T10:55:27.647Z,99067.75
2019-03-04T10:57:57.218Z,99073.12
2019-03-04T11:00:26.799Z,99069.09
2019-03-04T11:02:56.343Z,99080.34
2019-03-04T11:05:25.914Z,99091.92
2019-03-04T11:07:55.528Z,99095.95
2019-03-04T11:10:25.019Z,99109.01
2019-03-04T11:12:54.580Z,99109.39
2019-03-04T11:15:25.771Z,99115.95
2019-03-04T11:17:55.299Z,99121.47
2019-03-04T11:20:24.935Z,99129.61
2019-03-04T11:22:54.822Z,99131.45
2019-03-04T11:25:43.209Z,99136.48
2019-03-04T11:28:13.055Z,99133.30
2019-03-04T11:30:42.663Z,99123.39
2019-03-04T11:33:12.701Z,99150.98
2019-03-04T11:35:42.310Z,99154.17
2019-03-04T11:38:31.567Z,99169.29
2019-03-04T11:41:01.118Z,99161.73
2019-03-04T11:43:30.666Z,99160.88
2019-03-04T11:46:01.126Z,99170.64
2019-03-04T11:48:31.390Z,99173.32
2019-03-04T11:51:00.957Z,99168.80
2019-03-04T11:53:30.863Z,99174.17
2019-03-04T11:56:00.763Z,99182.23
2019-03-04T11:58:31.395Z,99197.00
2019-03-04T12:01:09.153Z,99204.59
2019-03-04T12:03:38.719Z,99205.30
2019-03-04T12:06:08.407Z,99209.32
2019-03-04T12:08:37.929Z,99197.00
2019-03-04T12:11:08.287Z,99207.63
2019-03-04T12:13:38.253Z,99218.27
2019-03-04T12:16:08.297Z,99226.67
2019-03-04T12:18:37.846Z,99242.30
2019-03-04T12:21:07.380Z,99232.89
2019-03-04T12:23:37.759Z,99251.23
2019-03-04T12:26:08.272Z,99252.42
2019-03-04T12:28:38.189Z,99253.77
2019-03-04T12:31:07.776Z,99247.55
2019-03-04T12:33:37.332Z,99265.86
2019-03-04T12:36:07.181Z,99270.89
2019-03-04T12:38:36.750Z,99272.96
2019-03-04T12:41:06.695Z,99281.02
2019-03-04T12:43:37.522Z,99277.84
2019-03-04T12:46:07.855Z,99278.69
2019-03-04T12:48:37.403Z,99287.09
2019-03-04T12:51:06.977Z,99282.72
2019-03-04T12:53:37.551Z,99302.38
2019-03-04T12:56:07.978Z,99305.06
2019-03-04T12:58:37.531Z,99319.34
2019-03-04T13:01:07.075Z,99322.03
2019-03-04T13:03:54.858Z,99324.36
2019-03-04T13:06:24.739Z,99330.59
2019-03-04T13:08:54.284Z,99337.45
2019-03-04T13:11:23.831Z,99336.11
2019-03-04T13:13:53.641Z,99333.77
2019-03-04T13:16:23.211Z,99372.73
2019-03-04T13:18:53.293Z,99362.48
2019-03-04T13:21:22.893Z,99370.40
2019-03-04T13:23:52.465Z,99378.11
2019-03-04T13:26:22.311Z,99377.12
2019-03-04T13:28:51.877Z,99382.98
2019-03-04T13:31:21.440Z,99384.33
2019-03-04T13:33:51.399Z,99396.92
2019-03-04T13:36:20.952Z,99390.20
2019-03-04T13:38:50.495Z,99397.66
2019-03-04T13:41:20.070Z,99418.66
2019-03-04T13:43:49.675Z,99420.34
2019-03-04T13:46:19.199Z,99423.04
2019-03-04T13:48:49.054Z,99431.24
2019-03-04T13:51:18.601Z,99431.59
2019-03-04T13:53:48.163Z,99435.13
2019-03-04T13:56:17.692Z,99454.58
2019-03-04T13:58:47.634Z,99442.84
2019-03-04T14:01:17.196Z,99436.13
2019-03-04T14:03:47.109Z,99449.91
2019-03-04T14:06:16.695Z,99459.31
2019-03-04T14:08:46.231Z,99471.91
2019-03-04T14:11:15.786Z,99472.89
2019-03-04T14:13:45.341Z,99458.97
2019-03-04T14:16:15.630Z,99480.46
2019-03-04T14:18:45.270Z,99478.13
2019-03-04T14:21:14.810Z,99483.89
2019-03-04T14:23:44.370Z,99490.22
2019-03-04T14:26:14.537Z,99492.91
2019-03-04T14:28:44.087Z,99504.16
2019-03-04T14:31:13.996Z,99506.34
2019-03-04T14:33:43.566Z,99513.56
2019-03-04T14:36:13.106Z,99511.86
2019-03-04T14:38:42.660Z,99532.02
2019-03-04T14:41:12.191Z,99525.16
2019-03-04T14:43:41.783Z,99520.66
2019-03-04T14:46:19.832Z,99530.42
2019-03-04T14:48:50.601Z,99540.33
2019-03-04T14:51:20.205Z,99543.51
2019-03-04T14:53:50.051Z,99537.39
2019-03-04T14:56:22.641Z,99560.98
2019-03-04T14:59:09.140Z,99552.53
2019-03-04T15:01:22.285Z,99565.01
2019-03-04T15:03:52.225Z,99562.06
2019-03-04T15:06:22.095Z,99570.23
2019-03-04T15:08:51.643Z,99568.28
2019-03-04T15:11:21.521Z,99581.50
2019-03-04T15:13:51.062Z,99568.42
2019-03-04T15:16:21.053Z,99578.17
2019-03-04T15:18:51.361Z,99588.93
2019-03-04T15:21:20.947Z,99581.86
2019-03-04T15:23:50.505Z,99588.94
2019-03-04T15:26:20.041Z,99598.35
2019-03-04T15:28:49.595Z,99594.33
2019-03-04T15:31:19.155Z,99595.03
2019-03-04T15:33:48.705Z,99599.67
2019-03-04T15:36:18.242Z,99600.02
2019-03-04T15:38:47.790Z,99605.16
2019-03-04T15:41:17.371Z,99605.40
2019-03-04T15:43:47.318Z,99610.03
2019-03-04T15:46:17.222Z,99612.36
2019-03-04T15:48:46.760Z,99617.84
2019-03-04T15:51:16.645Z,99629.22
2019-03-04T15:53:46.448Z,99625.30
2019-03-04T15:56:16.035Z,99634.45
2019-03-04T15:58:45.564Z,99627.73
2019-03-04T16:01:15.559Z,99629.67
2019-03-04T16:03:45.135Z,99635.89
2019-03-04T16:06:14.703Z,99664.70
2019-03-04T16:08:44.821Z,99649.22
2019-03-04T16:11:14.821Z,99646.99
2019-03-04T16:13:52.656Z,99635.89
2019-03-04T16:16:18.261Z,99641.37
2019-03-04T16:18:48.105Z,99661.90
2019-03-04T16:21:17.998Z,99658.58
2019-03-04T16:23:47.527Z,99676.91
2019-03-04T16:26:17.061Z,99674.83
2019-03-04T16:28:46.613Z,99689.59
2019-03-04T16:31:16.506Z,99688.25
2019-03-04T16:33:46.242Z,99692.88
2019-03-04T16:36:17.708Z,99696.91
2019-03-04T16:38:47.239Z,99689.83
2019-03-04T16:41:17.129Z,99701.53
2019-03-04T16:43:46.664Z,99698.00
2019-03-04T16:46:16.225Z,99702.52
2019-03-04T16:49:04.083Z,99693.61
2019-03-04T16:51:33.649Z,99707.95
2019-03-04T16:54:03.219Z,99720.04
2019-03-04T16:56:33.380Z,99700.39
2019-03-04T16:59:02.954Z,99693.29
2019-03-04T17:01:32.494Z,99692.44
2019-03-04T17:04:02.059Z,99712.58
2019-03-04T17:06:31.695Z,99707.60
2019-03-04T17:09:01.230Z,99711.73
2019-03-04T17:11:30.761Z,99722.47
2019-03-04T17:14:00.662Z,99715.41
2019-03-04T17:16:30.812Z,99719.43
2019-03-04T17:19:00.510Z,99707.34
2019-03-04T17:21:30.847Z,99711.37
2019-03-04T17:24:00.462Z,99707.80
2019-03-04T17:26:30.429Z,99709.54
2019-03-04T17:28:59.996Z,99708.69
2019-03-04T17:31:29.534Z,99716.25
2019-03-04T17:34:00.169Z,99726.60
2019-03-04T17:36:29.684Z,99721.72
2019-03-04T17:38:59.213Z,99716.48
2019-03-04T17:41:28.780Z,99716.35
2019-03-04T17:43:58.342Z,99718.09
2019-03-04T17:46:27.926Z,99721.98
2019-03-04T17:48:57.458Z,99717.84
2019-03-04T17:51:27.001Z,99713.27
2019-03-04T17:53:56.553Z,99721.19
2019-03-04T17:56:26.084Z,99723.02
2019-03-04T17:58:55.620Z,99725.21
2019-03-04T18:01:25.163Z,99719.37
2019-03-04T18:03:54.695Z,99722.32
2019-03-04T18:06:24.242Z,99723.77
2019-03-04T18:08:53.797Z,99717.80
2019-03-04T18:11:23.327Z,99736.95
2019-03-04T18:13:52.886Z,99728.05
2019-03-04T18:16:22.423Z,99728.90
2019-03-04T18:18:52.292Z,99731.97
2019-03-04T18:21:21.843Z,99717.30
2019-03-04T18:23:51.672Z,99721.69
2019-03-04T18:26:32.083Z,99733.78
2019-03-04T18:29:17.504Z,99744.42
2019-03-04T18:32:43.833Z,99749.79
2019-03-04T18:35:39.992Z,99744.42
2019-03-04T18:38:28.626Z,99750.15
2019-03-04T18:41:39.392Z,99748.80
2019-03-04T18:44:40.832Z,99724.63
2019-03-04T18:48:06.318Z,99750.54
2019-03-04T18:50:36.214Z,99751.03
2019-03-04T18:53:05.760Z,99755.91
2019-03-04T18:55:37.509Z,99754.56
2019-03-04T18:58:07.143Z,99760.30
2019-03-04T19:00:36.678Z,99741.63
2019-03-04T19:03:06.511Z,99752.73
2019-03-04T19:05:36.728Z,99763.84
2019-03-04T19:08:06.263Z,99762.03
2019-03-04T19:10:35.798Z,99767.41
2019-03-04T19:13:05.335Z,99762.88
2019-03-04T19:15:34.867Z,99770.45
2019-03-04T19:18:04.401Z,99772.64
2019-03-04T19:20:33.942Z,99769.95
2019-03-04T19:23:03.463Z,99766.31
2019-03-04T19:25:33.035Z,99763.63
2019-03-04T19:42:05.769Z,99775.72
2019-03-04T19:44:35.294Z,99784.11
2019-03-04T19:47:05.269Z,99781.43
2019-03-04T19:49:35.544Z,99781.53
2019-03-04T19:52:23.348Z,99786.16
2019-03-04T19:55:03.515Z,99782.02
2019-03-04T19:57:33.075Z,99789.59
2019-03-04T20:00:02.656Z,99781.66
2019-03-04T20:02:32.200Z,99803.43
2019-03-04T20:05:01.784Z,99801.10
2019-03-04T20:07:31.310Z,99786.13
2019-03-04T20:10:01.418Z,99794.91
2019-03-04T20:12:31.593Z,99798.47
2019-03-04T20:15:01.233Z,99799.09
2019-03-04T20:17:31.225Z,99803.63
2019-03-04T20:20:00.767Z,99798.51
2019-03-04T20:22:31.404Z,99804.63
2019-03-04T20:25:00.982Z,99804.14
2019-03-04T20:27:33.871Z,99790.46
2019-03-04T20:30:03.484Z,99805.24
2019-03-04T20:32:33.020Z,99802.81
2019-03-04T20:35:02.822Z,99822.02
2019-03-04T20:37:32.408Z,99806.73
2019-03-04T20:40:03.338Z,99814.80
2019-03-04T20:42:32.995Z,99817.84
2019-03-04T20:45:03.288Z,99819.69
2019-03-04T20:47:33.172Z,99819.69
2019-03-04T20:50:03.120Z,99823.36
2019-03-04T20:52:32.658Z,99828.98
2019-03-04T20:55:02.229Z,99819.58
2019-03-04T20:57:31.833Z,99821.88
2019-03-04T21:00:02.586Z,99825.45
2019-03-04T21:02:32.168Z,99834.85
2019-03-04T21:05:01.780Z,99833.02
2019-03-04T21:07:31.312Z,99835.81
2019-03-04T21:10:01.083Z,99838.39
2019-03-04T21:12:30.635Z,99844.12
2019-03-04T21:15:00.281Z,99842.42
2019-03-04T21:17:30.037Z,99849.01
2019-03-04T21:19:59.598Z,99860.00
2019-03-04T21:22:29.266Z,99851.44
2019-03-04T21:24:59.209Z,99847.91
2019-03-04T21:27:28.786Z,99860.00
2019-03-04T21:30:52.521Z,99860.39
2019-03-04T21:33:50.177Z,99860.25
2019-03-04T21:36:48.786Z,99883.95
2019-03-04T21:39:18.628Z,99877.72
2019-03-04T21:42:21.783Z,99878.31
2019-03-04T21:45:51.007Z,99897.13
2019-03-04T21:48:27.713Z,99892.25
2019-03-04T21:51:43.880Z,99893.23
2019-03-04T21:54:13.696Z,99897.27
2019-03-04T21:57:22.225Z,99905.69
2019-03-04T21:59:51.837Z,99914.59
2019-03-04T22:02:28.894Z,99914.98
2019-03-04T22:04:59.747Z,99919.88
2019-03-04T22:07:29.562Z,99923.41
2019-03-04T22:09:59.155Z,99921.81
2019-03-04T22:12:29.531Z,99932.30
2019-03-04T22:14:59.621Z,99937.91
2019-03-04T22:17:29.188Z,99926.14
2019-03-04T22:19:59.383Z,99934.54
2019-03-04T22:22:29.390Z,99940.50
2019-03-04T22:24:59.210Z,99935.36
2019-03-04T22:27:29.075Z,99943.55
2019-03-04T22:29:58.711Z,99949.52
2019-03-04T22:32:28.341Z,99944.34
2019-03-04T22:34:58.068Z,99946.17
2019-03-04T22:37:27.640Z,99947.64
2019-03-04T22:39:57.152Z,99951.88
2019-03-04T22:42:26.722Z,99945.88
2019-03-04T22:44:57.273Z,99965.52
2019-03-04T22:47:26.821Z,99961.50
2019-03-04T22:49:56.342Z,99967.72
2019-03-04T22:52:26.123Z,99967.00
2019-03-04T22:54:56.655Z,99971.62
2019-03-04T22:57:26.234Z,99970.77
2019-03-04T22:59:56.108Z,99980.75
2019-03-04T23:02:25.962Z,99972.79
2019-03-04T23:05:16.888Z,99979.14
2019-03-04T23:07:52.165Z,99972.42
2019-03-04T23:10:40.362Z,99977.86
2019-03-04T23:13:34.989Z,99985.92
2019-03-04T23:16:06.212Z,99996.76
2019-03-04T23:18:35.982Z,99992.46
2019-03-04T23:21:06.490Z,100005.03
2019-03-04T23:23:36.141Z,99997.11
2019-03-04T23:26:08.749Z,99996.72
2019-03-04T23:28:38.529Z,99996.84
2019-03-04T23:31:08.305Z,100000.97
2019-03-04T23:33:37.840Z,100001.45
2019-03-04T23:36:07.645Z,99993.89
2019-03-04T23:38:37.197Z,99997.52
2019-03-04T23:41:06.983Z,100005.70
2019-03-04T23:43:36.771Z,100001.68
2019-03-04T23:46:06.314Z,100003.60
2019-03-04T23:48:35.852Z,100004.95
2019-03-04T23:51:05.391Z,99999.67
2019-03-04T23:53:34.940Z,100007.73
2019-03-04T23:56:04.783Z,99995.77
2019-03-04T23:58:34.321Z,99992.69
